createdAt,value
2018-04-12T00:01:06.489Z,5.97
2018-04-12T00:03:34.014Z,4.97
2018-04-12T00:06:01.601Z,5.13
2018-04-12T00:08:29.116Z,4.77
2018-04-12T00:10:56.719Z,5.07
2018-04-12T00:13:24.248Z,5.40
2018-04-12T00:15:51.839Z,5.07
2018-04-12T00:18:19.404Z,5.57
2018-04-12T00:20:46.959Z,5.37
2018-04-12T00:23:14.518Z,5.03
2018-04-12T00:25:42.076Z,5.00
2018-04-12T00:28:09.640Z,4.67
2018-04-12T00:30:38.224Z,4.70
2018-04-12T00:33:05.781Z,4.97
2018-04-12T00:35:33.341Z,5.40
2018-04-12T00:38:00.871Z,4.80
2018-04-12T00:40:28.468Z,4.50
2018-04-12T00:42:56.025Z,5.10
2018-04-12T00:45:23.682Z,4.50
2018-04-12T00:47:51.201Z,4.13
2018-04-12T00:50:18.800Z,4.60
2018-04-12T00:52:46.359Z,4.90
2018-04-12T00:55:13.914Z,4.40
2018-04-12T00:57:41.439Z,4.23
2018-04-12T01:00:08.988Z,5.17
2018-04-12T01:02:36.518Z,5.17
2018-04-12T01:05:04.055Z,4.03
2018-04-12T01:07:31.725Z,4.63
2018-04-12T01:09:59.277Z,5.40
2018-04-12T01:12:26.821Z,4.07
2018-04-12T01:14:54.333Z,5.97
2018-04-12T01:17:21.881Z,4.53
2018-04-12T01:19:49.470Z,4.30
2018-04-12T01:22:17.076Z,4.30
2018-04-12T01:24:44.597Z,3.50
2018-04-12T01:27:12.194Z,4.50
2018-04-12T01:29:39.767Z,3.97
2018-04-12T01:32:08.324Z,4.25
2018-04-12T01:34:36.649Z,4.20
2018-04-12T01:37:04.197Z,3.90
2018-04-12T01:39:31.733Z,4.43
2018-04-12T01:41:59.290Z,4.03
2018-04-12T01:44:26.829Z,4.27
2018-04-12T01:46:54.411Z,5.77
2018-04-12T01:49:21.937Z,4.30
2018-04-12T01:51:49.540Z,4.03
2018-04-12T01:54:17.093Z,5.17
2018-04-12T01:56:44.752Z,4.55
2018-04-12T01:59:12.271Z,4.60
2018-04-12T02:01:39.821Z,4.73
2018-04-12T02:04:08.299Z,5.18
2018-04-12T02:06:35.912Z,5.20
2018-04-12T02:09:03.508Z,5.37
2018-04-12T02:11:31.135Z,4.73
2018-04-12T02:13:58.659Z,6.07
2018-04-12T02:16:26.266Z,4.25
2018-04-12T02:18:53.816Z,4.70
2018-04-12T02:21:21.364Z,5.13
2018-04-12T02:23:48.895Z,4.17
2018-04-12T02:26:16.492Z,4.10
2018-04-12T02:28:44.050Z,4.37
2018-04-12T02:31:11.621Z,7.07
2018-04-12T02:33:39.153Z,5.77
2018-04-12T02:36:06.731Z,5.00
2018-04-12T02:38:34.288Z,3.70
2018-04-12T02:41:01.951Z,4.30
2018-04-12T02:43:29.509Z,3.97
2018-04-12T02:45:57.069Z,4.10
2018-04-12T02:48:24.630Z,4.10
2018-04-12T02:50:52.170Z,4.87
2018-04-12T02:53:19.747Z,3.70
2018-04-12T02:55:47.309Z,5.93
2018-04-12T02:58:14.870Z,4.03
2018-04-12T03:00:42.429Z,5.23
2018-04-12T03:03:10.101Z,6.43
2018-04-12T03:05:38.608Z,5.82
2018-04-12T03:08:06.234Z,10.70
2018-04-12T03:10:33.792Z,8.97
2018-04-12T03:13:01.341Z,11.30
2018-04-12T03:15:28.870Z,10.77
2018-04-12T03:17:56.419Z,9.50
2018-04-12T03:20:24.030Z,9.80
2018-04-12T03:22:51.590Z,12.07
2018-04-12T03:25:19.150Z,12.47
2018-04-12T03:27:46.844Z,10.37
2018-04-12T03:30:14.382Z,12.20
2018-04-12T03:32:41.949Z,13.33
2018-04-12T03:35:09.490Z,13.48
2018-04-12T03:37:37.050Z,14.53
2018-04-12T03:40:04.590Z,14.83
2018-04-12T03:42:32.146Z,17.23
2018-04-12T03:44:59.673Z,15.57
2018-04-12T03:47:27.222Z,15.30
2018-04-12T03:49:55.358Z,16.30
2018-04-12T03:52:23.021Z,15.77
2018-04-12T03:54:50.589Z,16.53
2018-04-12T03:57:18.155Z,16.20
2018-04-12T03:59:45.709Z,16.17
2018-04-12T04:02:13.311Z,15.93
2018-04-12T04:04:40.841Z,17.43
2018-04-12T04:07:08.790Z,17.05
2018-04-12T04:09:36.361Z,15.20
2018-04-12T04:12:03.937Z,16.97
2018-04-12T04:14:42.150Z,16.20
2018-04-12T04:17:21.389Z,16.37
2018-04-12T04:20:00.627Z,16.80
2018-04-12T04:22:28.175Z,17.57
2018-04-12T04:24:55.805Z,15.73
2018-04-12T04:27:23.382Z,16.27
2018-04-12T04:29:50.909Z,17.87
2018-04-12T04:32:18.437Z,17.23
2018-04-12T04:34:46.044Z,17.20
2018-04-12T04:37:13.573Z,16.87
2018-04-12T04:39:41.163Z,18.63
2018-04-12T04:42:09.396Z,18.20
2018-04-12T04:44:37.001Z,18.47
2018-04-12T04:47:04.557Z,18.73
2018-04-12T04:49:32.735Z,17.40
2018-04-12T04:52:00.305Z,18.27
2018-04-12T04:54:27.961Z,17.50
2018-04-12T04:56:55.608Z,18.60
2018-04-12T04:59:23.177Z,17.80
2018-04-12T05:01:50.940Z,17.77
2018-04-12T05:04:18.499Z,17.25
2018-04-12T05:06:47.342Z,17.77
2018-04-12T05:09:14.897Z,18.23
2018-04-12T05:11:42.625Z,18.17
2018-04-12T05:14:10.278Z,17.50
2018-04-12T05:16:37.834Z,17.93
2018-04-12T05:19:05.395Z,20.10
2018-04-12T05:21:32.952Z,18.97
2018-04-12T05:24:00.530Z,18.77
2018-04-12T05:26:28.066Z,20.20
2018-04-12T05:28:55.619Z,20.93
2018-04-12T05:31:23.138Z,22.50
2018-04-12T05:33:50.740Z,22.25
2018-04-12T05:36:18.473Z,22.85
2018-04-12T05:38:47.998Z,22.57
2018-04-12T05:41:15.734Z,22.70
2018-04-12T05:43:43.303Z,23.90
2018-04-12T05:46:10.907Z,23.10
2018-04-12T05:48:38.564Z,23.47
2018-04-12T05:51:06.085Z,24.07
2018-04-12T05:53:33.661Z,23.00
2018-04-12T05:56:01.243Z,22.77
2018-04-12T05:58:28.821Z,23.37
2018-04-12T06:00:56.370Z,23.07
2018-04-12T06:03:23.926Z,23.83
2018-04-12T06:05:51.498Z,22.80
2018-04-12T06:08:19.040Z,39.10
2018-04-12T06:10:46.605Z,22.25
2018-04-12T06:13:14.880Z,21.73
2018-04-12T06:15:43.258Z,21.40
2018-04-12T06:18:10.815Z,34.70
2018-04-12T06:20:38.387Z,23.10
2018-04-12T06:23:05.943Z,23.63
2018-04-12T06:25:33.598Z,21.87
2018-04-12T06:28:01.117Z,24.23
2018-04-12T06:30:28.716Z,22.40
2018-04-12T06:32:56.275Z,23.30
2018-04-12T06:35:25.400Z,23.03
2018-04-12T06:37:52.951Z,22.30
2018-04-12T06:40:20.595Z,25.63
2018-04-12T06:42:48.134Z,25.77
2018-04-12T06:45:15.710Z,23.37
2018-04-12T06:47:43.270Z,25.30
2018-04-12T06:50:10.931Z,27.70
2018-04-12T06:52:38.492Z,24.37
2018-04-12T06:55:06.061Z,24.27
2018-04-12T06:57:33.615Z,25.00
2018-04-12T07:00:01.174Z,24.70
2018-04-12T07:02:28.774Z,25.60
2018-04-12T07:04:56.390Z,25.27
2018-04-12T07:07:23.949Z,26.10
2018-04-12T07:09:51.626Z,25.60
2018-04-12T07:12:19.182Z,24.67
2018-04-12T07:14:46.837Z,25.33
2018-04-12T07:17:14.360Z,25.80
2018-04-12T07:19:41.914Z,26.07
2018-04-12T07:22:10.035Z,26.35
2018-04-12T07:24:37.596Z,24.80
2018-04-12T07:27:05.246Z,25.77
2018-04-12T07:29:32.802Z,26.47
2018-04-12T07:32:00.672Z,26.27
2018-04-12T07:34:28.334Z,27.03
2018-04-12T07:36:55.854Z,27.33
2018-04-12T07:39:23.381Z,27.73
2018-04-12T07:41:53.314Z,26.75
2018-04-12T07:44:21.755Z,27.23
2018-04-12T07:46:50.524Z,26.13
2018-04-12T07:49:18.196Z,25.25
2018-04-12T07:51:46.045Z,24.47
2018-04-12T07:54:13.567Z,25.73
2018-04-12T07:56:43.207Z,26.70
2018-04-12T07:59:12.693Z,25.67
2018-04-12T08:01:40.333Z,27.70
2018-04-12T08:04:10.678Z,26.97
2018-04-12T08:06:41.484Z,27.60
2018-04-12T08:09:11.378Z,27.95
2018-04-12T08:11:39.505Z,27.37
2018-04-12T08:14:09.388Z,28.20
2018-04-12T08:16:37.017Z,27.45
2018-04-12T08:19:04.691Z,26.87
2018-04-12T08:21:32.496Z,26.80
2018-04-12T08:24:00.108Z,27.27
2018-04-12T08:26:27.671Z,27.67
2018-04-12T08:28:55.810Z,24.93
2018-04-12T08:31:23.481Z,25.37
2018-04-12T08:33:53.026Z,24.33
2018-04-12T08:36:21.104Z,23.60
2018-04-12T08:38:48.744Z,24.30
2018-04-12T08:41:16.728Z,22.85
2018-04-12T08:43:44.316Z,24.00
2018-04-12T08:46:12.273Z,27.33
2018-04-12T08:48:40.270Z,22.92
2018-04-12T08:51:07.856Z,21.93
2018-04-12T08:53:35.531Z,22.77
2018-04-12T08:56:03.299Z,23.20
2018-04-12T08:58:30.859Z,22.70
2018-04-12T09:00:58.457Z,24.43
2018-04-12T09:03:25.989Z,26.45
2018-04-12T09:05:53.990Z,24.80
2018-04-12T09:08:21.607Z,24.27
2018-04-12T09:10:50.704Z,26.33
2018-04-12T09:13:18.344Z,26.40
2018-04-12T09:15:46.217Z,25.08
2018-04-12T09:18:13.803Z,23.20
2018-04-12T09:20:41.378Z,21.33
2018-04-12T09:23:08.910Z,21.87
2018-04-12T09:25:37.806Z,23.27
2018-04-12T09:28:05.485Z,20.27
2018-04-12T09:30:33.010Z,22.80
2018-04-12T09:33:00.565Z,21.23
2018-04-12T09:35:28.093Z,22.37
2018-04-12T09:37:55.716Z,23.13
2018-04-12T09:40:23.249Z,24.03
2018-04-12T09:42:50.824Z,24.67
2018-04-12T09:45:18.381Z,23.98
2018-04-12T09:47:45.929Z,21.03
2018-04-12T09:50:13.505Z,23.53
2018-04-12T09:52:41.098Z,23.00
2018-04-12T09:55:08.734Z,19.17
2018-04-12T09:57:36.309Z,18.97
2018-04-12T10:00:04.032Z,17.73
2018-04-12T10:02:31.541Z,16.97
2018-04-12T10:05:00.743Z,16.97
2018-04-12T10:07:33.923Z,16.62
2018-04-12T10:10:01.555Z,18.20
2018-04-12T10:12:29.217Z,20.27
2018-04-12T10:14:56.750Z,16.77
2018-04-12T10:17:24.414Z,16.07
2018-04-12T10:19:52.006Z,15.53
2018-04-12T10:22:19.585Z,16.90
2018-04-12T10:24:47.116Z,16.20
2018-04-12T10:27:14.665Z,15.65
2018-04-12T10:29:42.214Z,17.23
2018-04-12T10:32:10.545Z,13.88
2018-04-12T10:34:38.322Z,16.07
2018-04-12T10:37:05.970Z,20.40
2018-04-12T10:39:33.507Z,14.32
2018-04-12T10:42:01.105Z,14.73
2018-04-12T10:44:28.631Z,15.30
2018-04-12T10:46:56.181Z,15.00
2018-04-12T10:49:23.733Z,16.90
2018-04-12T10:51:51.314Z,13.93
2018-04-12T10:54:18.855Z,13.80
2018-04-12T10:56:46.834Z,14.03
2018-04-12T10:59:14.491Z,14.03
2018-04-12T11:01:42.046Z,14.47
2018-04-12T11:04:09.709Z,13.45
2018-04-12T11:06:37.247Z,12.93
2018-04-12T11:09:04.827Z,13.23
2018-04-12T11:11:32.397Z,13.27
2018-04-12T11:13:59.982Z,13.40
2018-04-12T11:16:27.510Z,13.02
2018-04-12T11:18:55.062Z,12.93
2018-04-12T11:21:22.605Z,16.45
2018-04-12T11:23:50.165Z,11.53
2018-04-12T11:26:17.693Z,12.03
2018-04-12T11:28:45.242Z,12.83
2018-04-12T11:31:12.871Z,11.17
2018-04-12T11:33:40.720Z,7.97
2018-04-12T11:36:08.287Z,7.13
2018-04-12T11:38:35.827Z,7.57
2018-04-12T11:41:03.428Z,12.73
2018-04-12T11:43:31.084Z,6.40
2018-04-12T11:45:58.648Z,5.80
2018-04-12T11:48:26.291Z,5.23
2018-04-12T11:50:53.813Z,10.13
2018-04-12T11:53:21.375Z,5.80
2018-04-12T11:55:48.924Z,7.18
2018-04-12T11:58:16.494Z,10.83
2018-04-12T12:00:44.022Z,5.37
2018-04-12T12:03:11.651Z,4.77
2018-04-12T12:05:39.174Z,4.87
2018-04-12T12:08:06.730Z,5.20
2018-04-12T12:10:34.258Z,8.13
2018-04-12T12:13:01.887Z,4.50
2018-04-12T12:15:29.457Z,5.10
2018-04-12T12:17:57.012Z,8.57
2018-04-12T12:20:24.536Z,7.93
2018-04-12T12:22:52.126Z,8.63
2018-04-12T12:25:19.644Z,5.20
2018-04-12T12:27:47.246Z,4.67
2018-04-12T12:30:14.804Z,7.97
2018-04-12T12:32:42.327Z,4.70
2018-04-12T12:35:09.905Z,6.13
2018-04-12T12:37:37.430Z,4.93
2018-04-12T12:40:04.970Z,8.03
2018-04-12T12:42:32.486Z,7.93
2018-04-12T12:45:00.058Z,5.70
2018-04-12T12:47:27.616Z,6.82
2018-04-12T12:49:55.193Z,11.63
2018-04-12T12:52:22.705Z,5.50
2018-04-12T12:54:50.302Z,5.17
2018-04-12T12:57:18.002Z,5.23
2018-04-12T12:59:45.577Z,5.67
2018-04-12T13:02:13.184Z,8.27
2018-04-12T13:04:41.767Z,6.93
2018-04-12T13:07:09.338Z,14.20
2018-04-12T13:09:36.885Z,5.50
2018-04-12T13:12:06.459Z,6.13
2018-04-12T13:14:34.069Z,5.30
2018-04-12T13:17:01.614Z,5.07
2018-04-12T13:19:29.277Z,4.90
2018-04-12T13:21:56.798Z,5.12
2018-04-12T13:24:24.753Z,5.40
2018-04-12T13:26:56.859Z,5.87
2018-04-12T13:29:26.836Z,5.67
2018-04-12T13:31:58.055Z,6.60
2018-04-12T13:34:26.033Z,9.40
2018-04-12T13:36:53.583Z,9.63
2018-04-12T13:39:24.196Z,6.33
2018-04-12T13:41:53.688Z,7.67
2018-04-12T13:44:23.625Z,6.60
2018-04-12T13:49:27.227Z,6.90
2018-04-12T13:51:58.108Z,7.13
2018-04-12T13:54:26.901Z,6.35
2018-04-12T13:56:55.550Z,7.27
2018-04-12T13:59:23.804Z,5.80
2018-04-12T14:01:54.216Z,5.80
2018-04-12T14:04:21.935Z,6.37
2018-04-12T14:06:49.565Z,6.97
2018-04-12T14:09:17.122Z,7.90
2018-04-12T14:11:44.682Z,5.63
2018-04-12T14:14:15.642Z,5.75
2018-04-12T14:16:45.775Z,5.80
2018-04-12T14:19:18.534Z,5.57
2018-04-12T14:21:50.972Z,6.70
2018-04-12T14:24:18.701Z,5.82
2018-04-12T14:26:46.332Z,5.50
2018-04-12T14:29:16.445Z,4.93
2018-04-12T14:31:46.128Z,4.30
2018-04-12T14:34:15.995Z,5.63
2018-04-12T14:36:45.100Z,4.73
2018-04-12T14:39:15.139Z,6.40
2018-04-12T14:41:46.206Z,4.32
2018-04-12T14:44:16.940Z,4.60
2018-04-12T14:46:46.999Z,4.30
2018-04-12T14:49:17.025Z,4.00
2018-04-12T14:51:47.160Z,3.80
2018-04-12T14:54:19.152Z,4.03
2018-04-12T14:56:48.130Z,5.33
2018-04-12T14:59:18.531Z,4.30
2018-04-12T15:01:49.258Z,4.00
2018-04-12T15:04:19.372Z,4.10
2018-04-12T15:06:52.844Z,5.77
2018-04-12T15:09:22.739Z,4.23
2018-04-12T15:11:53.676Z,5.97
2018-04-12T15:14:24.695Z,3.67
2018-04-12T15:16:56.091Z,4.15
2018-04-12T15:19:26.906Z,3.00
2018-04-12T15:21:57.957Z,3.37
2018-04-12T15:24:27.903Z,23.42
2018-04-12T15:26:56.246Z,4.40
2018-04-12T15:29:23.931Z,4.72
2018-04-12T15:31:52.996Z,4.43
2018-04-12T15:36:59.296Z,3.47
2018-04-12T15:39:26.895Z,3.57
2018-04-12T15:41:54.508Z,4.53
2018-04-12T15:44:22.074Z,3.97
2018-04-12T15:46:49.806Z,3.83
2018-04-12T15:49:17.330Z,3.70
2018-04-12T15:51:44.960Z,2.40
2018-04-12T15:54:14.706Z,4.67
2018-04-12T15:56:47.392Z,3.73
2018-04-12T15:59:15.933Z,2.50
2018-04-12T16:01:46.273Z,7.17
2018-04-12T16:04:17.442Z,2.63
2018-04-12T16:06:45.853Z,4.60
2018-04-12T16:09:16.245Z,3.22
2018-04-12T16:11:44.525Z,2.97
2018-04-12T16:14:13.384Z,4.87
2018-04-12T16:16:42.889Z,2.60
2018-04-12T16:19:10.777Z,4.63
2018-04-12T16:21:39.129Z,4.07
2018-04-12T16:24:06.889Z,2.70
2018-04-12T16:26:34.486Z,2.60
2018-04-12T16:29:02.191Z,3.80
2018-04-12T16:31:33.762Z,3.55
2018-04-12T16:34:02.450Z,3.00
2018-04-12T16:36:29.974Z,4.13
2018-04-12T16:38:57.554Z,3.90
2018-04-12T16:41:28.717Z,3.37
2018-04-12T16:43:58.100Z,5.68
2018-04-12T16:46:29.552Z,2.20
2018-04-12T16:49:04.110Z,3.00
2018-04-12T16:51:36.051Z,2.57
2018-04-12T16:54:08.428Z,4.20
2018-04-12T16:56:40.041Z,3.53
2018-04-12T16:59:18.065Z,2.80
2018-04-12T17:01:50.087Z,6.40
2018-04-12T17:07:02.722Z,2.87
2018-04-12T17:09:34.485Z,3.30
2018-04-12T17:14:46.184Z,3.23
2018-04-12T17:17:18.695Z,2.85
2018-04-12T17:19:55.719Z,2.00
2018-04-12T17:22:37.942Z,2.10
2018-04-12T17:25:10.599Z,3.20
2018-04-12T17:27:45.141Z,1.53
2018-04-12T17:30:20.147Z,1.50
2018-04-12T17:32:56.614Z,1.50
2018-04-12T17:35:29.347Z,1.12
2018-04-12T17:38:02.459Z,1.60
2018-04-12T17:40:36.015Z,5.13
2018-04-12T17:43:13.531Z,6.27
2018-04-12T17:45:47.373Z,8.23
2018-04-12T17:48:22.719Z,3.80
2018-04-12T17:50:56.280Z,2.67
2018-04-12T17:53:31.165Z,5.07
2018-04-12T17:56:03.578Z,10.87
2018-04-12T17:58:37.155Z,21.37
2018-04-12T18:03:45.982Z,38.20
2018-04-12T18:06:25.105Z,42.35
2018-04-12T18:09:00.338Z,18.53
2018-04-12T18:11:36.992Z,11.47
2018-04-12T18:14:10.949Z,10.23
2018-04-12T18:16:44.954Z,13.23
2018-04-12T18:19:20.506Z,11.13
2018-04-12T18:21:53.457Z,6.73
2018-04-12T18:24:26.709Z,2.00
2018-04-12T18:26:59.602Z,5.13
2018-04-12T18:29:32.726Z,8.50
2018-04-12T18:32:06.062Z,5.03
2018-04-12T18:34:37.156Z,2.80
2018-04-12T18:37:10.859Z,2.00
2018-04-12T18:39:43.527Z,3.20
2018-04-12T18:44:58.643Z,3.00
2018-04-12T18:47:34.350Z,1.97
2018-04-12T18:52:42.330Z,4.80
2018-04-12T18:55:14.228Z,2.30
2018-04-12T18:57:47.820Z,1.80
2018-04-12T19:00:20.877Z,2.50
2018-04-12T19:02:53.922Z,2.00
2018-04-12T19:08:07.359Z,4.32
2018-04-12T19:10:39.699Z,2.97
2018-04-12T19:13:12.043Z,76.83
2018-04-12T19:15:48.903Z,68.87
2018-04-12T19:18:18.699Z,32.10
2018-04-12T19:20:46.702Z,20.23
2018-04-12T19:23:14.258Z,18.17
2018-04-12T19:25:41.885Z,6.50
2018-04-12T19:28:09.429Z,13.00
2018-04-12T19:30:37.043Z,10.63
2018-04-12T19:33:04.607Z,6.53
2018-04-12T19:35:32.735Z,5.13
2018-04-12T19:38:00.366Z,4.97
2018-04-12T19:40:29.926Z,4.50
2018-04-12T19:42:57.523Z,4.23
2018-04-12T19:45:25.099Z,4.00
2018-04-12T19:47:53.494Z,3.83
2018-04-12T19:50:21.053Z,4.20
2018-04-12T19:52:48.556Z,7.83
2018-04-12T19:55:16.109Z,4.30
2018-04-12T19:57:43.633Z,5.17
2018-04-12T20:00:11.186Z,5.07
2018-04-12T20:02:38.713Z,6.33
2018-04-12T20:05:06.280Z,4.83
2018-04-12T20:07:33.811Z,7.53
2018-04-12T20:10:04.843Z,5.50
2018-04-12T20:12:32.617Z,4.13
2018-04-12T20:15:00.177Z,4.60
2018-04-12T20:17:27.709Z,12.60
2018-04-12T20:19:55.428Z,10.37
2018-04-12T20:22:23.702Z,18.03
2018-04-12T20:24:51.361Z,20.67
2018-04-12T20:27:18.889Z,22.37
2018-04-12T20:29:46.434Z,19.90
2018-04-12T20:32:13.964Z,23.73
2018-04-12T20:34:41.541Z,18.00
2018-04-12T20:37:09.069Z,12.27
2018-04-12T20:39:36.659Z,7.57
2018-04-12T20:42:04.173Z,10.03
2018-04-12T20:44:31.727Z,9.50
2018-04-12T20:46:59.254Z,8.90
2018-04-12T20:49:26.831Z,6.70
2018-04-12T20:51:54.359Z,5.90
2018-04-12T20:54:21.885Z,6.35
2018-04-12T20:56:49.437Z,7.97
2018-04-12T20:59:16.966Z,5.77
2018-04-12T21:01:44.539Z,5.90
2018-04-12T21:04:12.070Z,6.63
2018-04-12T21:06:39.606Z,4.25
2018-04-12T21:09:07.202Z,4.57
2018-04-12T21:11:34.749Z,6.93
2018-04-12T21:14:02.282Z,15.07
2018-04-12T21:16:29.883Z,7.50
2018-04-12T21:18:57.406Z,12.17
2018-04-12T21:21:24.961Z,10.93
2018-04-12T21:23:53.357Z,9.97
2018-04-12T21:26:21.168Z,11.73
2018-04-12T21:28:48.817Z,6.73
2018-04-12T21:31:16.368Z,7.27
2018-04-12T21:33:43.927Z,7.20
2018-04-12T21:36:14.594Z,8.63
2018-04-12T21:38:43.192Z,6.77
2018-04-12T21:41:11.280Z,6.30
2018-04-12T21:43:39.344Z,6.70
2018-04-12T21:46:08.233Z,6.93
2018-04-12T21:48:37.887Z,10.57
2018-04-12T21:51:06.583Z,7.83
2018-04-12T21:53:34.214Z,7.00
2018-04-12T21:56:02.225Z,6.23
2018-04-12T21:58:31.773Z,6.23
2018-04-12T22:01:00.121Z,5.55
2018-04-12T22:03:29.194Z,6.43
2018-04-12T22:05:56.854Z,6.10
2018-04-12T22:08:24.609Z,7.40
2018-04-12T22:10:53.000Z,6.37
2018-04-12T22:13:21.595Z,5.37
2018-04-12T22:15:49.892Z,6.93
2018-04-12T22:18:17.414Z,11.17
2018-04-12T22:20:45.986Z,8.43
2018-04-12T22:23:13.513Z,6.43
2018-04-12T22:25:41.119Z,6.40
2018-04-12T22:28:08.671Z,6.60
2018-04-12T22:30:39.474Z,6.30
2018-04-12T22:33:06.999Z,5.83
2018-04-12T22:35:34.575Z,7.97
2018-04-12T22:38:02.156Z,6.77
2018-04-12T22:40:29.743Z,8.10
2018-04-12T22:42:57.408Z,6.85
2018-04-12T22:45:24.943Z,6.00
2018-04-12T22:47:52.534Z,6.90
2018-04-12T22:50:20.164Z,7.07
2018-04-12T22:52:47.755Z,6.67
2018-04-12T22:55:16.126Z,6.90
2018-04-12T22:57:43.688Z,6.97
2018-04-12T23:00:11.251Z,7.40
2018-04-12T23:02:38.804Z,8.80
2018-04-12T23:05:06.334Z,6.60
2018-04-12T23:07:33.882Z,6.37
2018-04-12T23:10:01.409Z,6.93
2018-04-12T23:12:28.966Z,7.32
2018-04-12T23:14:56.514Z,7.82
2018-04-12T23:17:24.067Z,6.90
2018-04-12T23:19:51.596Z,9.73
2018-04-12T23:22:19.178Z,6.20
2018-04-12T23:24:46.738Z,6.27
2018-04-12T23:27:14.297Z,7.10
2018-04-12T23:29:41.856Z,7.33
2018-04-12T23:32:09.425Z,6.73
2018-04-12T23:34:36.984Z,9.10
2018-04-12T23:37:04.637Z,7.12
2018-04-12T23:39:32.161Z,6.53
2018-04-12T23:41:59.716Z,7.77
2018-04-12T23:44:27.242Z,7.30
2018-04-12T23:46:54.796Z,6.73
2018-04-12T23:49:22.295Z,7.80
2018-04-12T23:51:49.849Z,7.47
2018-04-12T23:54:17.397Z,7.18
2018-04-12T23:56:44.954Z,7.70
2018-04-12T23:59:12.572Z,7.00
